Atlas — SV6729 — position and weather

sailwx.info

Track history (hours):
 
Tides and Currents Weather Stations Pressure Air Temp Water Temp Dewpoint Dewpoint Depression Visibility Wind Speed Wind Dir Waves Ship Positions

Atlas

Last reported at 2015-Apr-22 03:32 UTC. Time now 2015-Apr-22 03:44 UTC.
Position N 37°57' E 023°37'.

Length 29 m; draft 5 m.

Type: Tug. MMSI: 239611000.

Date/timePositionNaut miles runAvg speedWind from/ knotsBaromVisibWave heightAir tempDewpointWater temp
2015-Apr-22 03:32N 37°57' E 023°37'0 0.0
2015-Apr-22 02:28N 37°57' E 023°37'0 0.0
2015-Apr-22 01:29N 37°57' E 023°37'0 0.0
2015-Apr-21 18:20N 37°57' E 023°37'0 0.1
2015-Apr-21 17:33N 37°57' E 023°37'1 0.5
2015-Apr-21 16:33N 37°57' E 023°36'1 0.5
2015-Apr-21 15:29N 37°57' E 023°37'3 3.2
2015-Apr-21 14:33N 37°58' E 023°33'3 2.9
2015-Apr-21 13:31N 37°57' E 023°37'1 1.1
2015-Apr-21 12:31N 37°57' E 023°35'1 1.1
2015-Apr-21 11:33N 37°57' E 023°37'0 0.0
2015-Apr-20 18:30N 37°57' E 023°37'1 1.1
2015-Apr-20 17:33N 37°57' E 023°35'2 1.7
2015-Apr-20 16:31N 37°58' E 023°33'3 2.6
2015-Apr-20 15:29N 37°57' E 023°37'0 0.0
2015-Apr-20 14:29N 37°57' E 023°37'0 0.0
2015-Apr-20 13:32N 37°57' E 023°37'0 0.0
2015-Apr-20 12:22N 37°57' E 023°37'0 0.6
2015-Apr-20 11:33N 37°57' E 023°36'0 0.0
2015-Apr-19 19:30N 37°57' E 023°36'0 0.0
2015-Apr-19 14:33N 37°57' E 023°36'3 1.3
2015-Apr-19 12:25N 37°58' E 023°33'3 0.2
2015-Apr-18 20:10N 37°57' E 023°37'4 6.3
2015-Apr-18 19:33N 37°60' E 023°33'3 2.6
2015-Apr-18 18:28N 38°02' E 023°31'0 0.0
2015-Apr-18 17:23N 38°02' E 023°31'6 7.1
2015-Apr-18 16:33N 37°57' E 023°34'2 1.4
2015-Apr-18 15:23N 37°57' E 023°37'0 0.0
2015-Apr-18 14:33N 37°57' E 023°37'2 1.5
2015-Apr-18 13:28N 37°56' E 023°38'2 1.7
2015-Apr-18 12:32N 37°57' E 023°37'0 0.0
2015-Apr-18 11:33N 37°57' E 023°37'0 0.0
2015-Apr-18 10:27N 37°57' E 023°37'0 0.0
2015-Apr-18 09:31N 37°57' E 023°37'0 0.0
2015-Apr-18 08:29N 37°57' E 023°37'0 0.0
2015-Apr-18 07:33N 37°57' E 023°37'1 0.6
2015-Apr-18 06:31N 37°57' E 023°36'6 6.2
2015-Apr-18 05:29N 38°02' E 023°32'3 2.8
2015-Apr-18 04:33N 37°60' E 023°33'5 5.3
2015-Apr-18 03:33N 37°56' E 023°38'1 1.3
2015-Apr-18 02:33N 37°57' E 023°37'0 0.0
2015-Apr-18 01:33N 37°57' E 023°37'0 0.0
2015-Apr-18 00:31N 37°57' E 023°37'0 0.0
2015-Apr-17 23:31N 37°57' E 023°37'0 0.0
2015-Apr-17 22:27N 37°57' E 023°37'0 0.0
2015-Apr-17 21:31N 37°57' E 023°37'0 0.0
2015-Apr-17 20:31N 37°57' E 023°37'0 0.0
2015-Apr-17 19:33N 37°57' E 023°37'0 0.0
2015-Apr-17 18:33N 37°57' E 023°37'0 0.0
2015-Apr-17 17:31N 37°57' E 023°37'0 0.0
2015-Apr-17 16:28N 37°57' E 023°37'0 0.0
2015-Apr-17 15:29N 37°57' E 023°37'0 0.0
2015-Apr-17 14:27N 37°57' E 023°37'0 0.0
2015-Apr-17 13:32N 37°57' E 023°37'3 3.5
2015-Apr-17 12:33N 37°59' E 023°33'2 2.0
2015-Apr-17 11:28N 38°01' E 023°33'1 1.4
2015-Apr-17 10:24N 38°01' E 023°31'0 0.1
2015-Apr-17 09:32N 38°01' E 023°31'0 0.1
2015-Apr-17 08:33N 38°01' E 023°31'3 3.3
2015-Apr-17 07:31N 38°02' E 023°35'3 2.4
2015-Apr-17 06:05N 38°02' E 023°31'6 4.0
2015-Apr-17 04:32N 37°57' E 023°36'0 0.0
2015-Apr-16 17:15N 37°57' E 023°36'6 3.1
2015-Apr-16 15:12N 38°01' E 023°30'1 0.3
2015-Apr-16 10:27N 38°00' E 023°31'5 3.9
2015-Apr-16 09:04N 37°57' E 023°36'0 0.7
2015-Apr-16 08:33N 37°57' E 023°36'0 0.2
2015-Apr-16 07:30N 37°57' E 023°37'0 0.0
2015-Apr-16 06:33N 37°57' E 023°37'1 0.5
2015-Apr-16 05:14N 37°57' E 023°36'0 0.5
2015-Apr-16 04:30N 37°57' E 023°36'0 0.0
2015-Apr-15 10:16N 37°57' E 023°36'1 0.7
2015-Apr-15 09:17N 37°57' E 023°36'0 0.2
2015-Apr-15 08:22N 37°57' E 023°35'1 1.4
2015-Apr-15 07:26N 37°57' E 023°34'0 0.5
2015-Apr-15 06:33N 37°57' E 023°34'1 0.4
2015-Apr-15 04:29N 37°57' E 023°35'1 0.1
2015-Apr-14 16:31N 37°58' E 023°36'0 0.2
2015-Apr-14 15:30N 37°58' E 023°37'0 0.2
2015-Apr-14 14:32N 37°57' E 023°37'0 0.0
2015-Apr-14 13:33N 37°57' E 023°37'3 3.3
2015-Apr-14 12:33N 37°59' E 023°33'4 3.8
2015-Apr-14 11:33N 38°02' E 023°31'0 0.1
2015-Apr-14 10:30N 38°02' E 023°31'1 1.1
2015-Apr-14 09:23N 38°02' E 023°32'0 0.0
2015-Apr-14 08:11N 38°02' E 023°32'3 5.0
2015-Apr-14 07:33N 37°59' E 023°33'3 3.0
2015-Apr-14 06:27N 37°57' E 023°37'0 0.3
2015-Apr-14 05:33N 37°58' E 023°36'0 0.2
2015-Apr-14 04:25N 37°57' E 023°37'0 0.0
2015-Apr-14 03:26N 37°57' E 023°37'0 0.0
2015-Apr-13 04:33N 37°57' E 023°36'4 0.8
2015-Apr-12 23:30N 38°01' E 023°36'0 0.0
2015-Apr-12 21:05N 38°01' E 023°36'0 0.0
2015-Apr-12 13:26N 38°01' E 023°36'0 0.0
2015-Apr-12 12:28N 38°01' E 023°36'0 0.0
2015-Apr-12 11:17N 38°01' E 023°36'0 0.0
2015-Apr-12 10:16N 38°01' E 023°36'0 0.0
2015-Apr-12 08:08N 38°01' E 023°36'0 0.0
2015-Apr-12 05:21N 38°01' E 023°36'0 0.0
2015-Apr-12 04:27N 38°01' E 023°36'4 5.0
2015-Apr-12 03:33N 37°57' E 023°35'  
Track history (hours):
 
Tides and Currents Weather Stations Pressure Air Temp Water Temp Dewpoint Dewpoint Depression Visibility Wind Speed Wind Dir Waves Ship Positions

Atlas

Last reported at 2015-Apr-22 03:32 UTC. Time now 2015-Apr-22 03:44 UTC.
Position N 37°57' E 023°37'.

Length 29 m; draft 5 m.

Type: Tug. MMSI: 239611000.

Date/timePositionNaut miles runAvg speedWind from/ knotsBaromVisibWave heightAir tempDewpointWater temp
2015-Apr-22 03:32N 37°57' E 023°37'0 0.0
2015-Apr-22 02:28N 37°57' E 023°37'0 0.0
2015-Apr-22 01:29N 37°57' E 023°37'0 0.0
2015-Apr-21 18:20N 37°57' E 023°37'0 0.1
2015-Apr-21 17:33N 37°57' E 023°37'1 0.5
2015-Apr-21 16:33N 37°57' E 023°36'1 0.5
2015-Apr-21 15:29N 37°57' E 023°37'3 3.2
2015-Apr-21 14:33N 37°58' E 023°33'3 2.9
2015-Apr-21 13:31N 37°57' E 023°37'1 1.1
2015-Apr-21 12:31N 37°57' E 023°35'1 1.1
2015-Apr-21 11:33N 37°57' E 023°37'0 0.0
2015-Apr-20 18:30N 37°57' E 023°37'1 1.1
2015-Apr-20 17:33N 37°57' E 023°35'2 1.7
2015-Apr-20 16:31N 37°58' E 023°33'3 2.6
2015-Apr-20 15:29N 37°57' E 023°37'0 0.0
2015-Apr-20 14:29N 37°57' E 023°37'0 0.0
2015-Apr-20 13:32N 37°57' E 023°37'0 0.0
2015-Apr-20 12:22N 37°57' E 023°37'0 0.6
2015-Apr-20 11:33N 37°57' E 023°36'0 0.0
2015-Apr-19 19:30N 37°57' E 023°36'0 0.0
2015-Apr-19 14:33N 37°57' E 023°36'3 1.3
2015-Apr-19 12:25N 37°58' E 023°33'3 0.2
2015-Apr-18 20:10N 37°57' E 023°37'4 6.3
2015-Apr-18 19:33N 37°60' E 023°33'3 2.6
2015-Apr-18 18:28N 38°02' E 023°31'0 0.0
2015-Apr-18 17:23N 38°02' E 023°31'6 7.1
2015-Apr-18 16:33N 37°57' E 023°34'2 1.4
2015-Apr-18 15:23N 37°57' E 023°37'0 0.0
2015-Apr-18 14:33N 37°57' E 023°37'2 1.5
2015-Apr-18 13:28N 37°56' E 023°38'2 1.7
2015-Apr-18 12:32N 37°57' E 023°37'0 0.0
2015-Apr-18 11:33N 37°57' E 023°37'0 0.0
2015-Apr-18 10:27N 37°57' E 023°37'0 0.0
2015-Apr-18 09:31N 37°57' E 023°37'0 0.0
2015-Apr-18 08:29N 37°57' E 023°37'0 0.0
2015-Apr-18 07:33N 37°57' E 023°37'1 0.6
2015-Apr-18 06:31N 37°57' E 023°36'6 6.2
2015-Apr-18 05:29N 38°02' E 023°32'3 2.8
2015-Apr-18 04:33N 37°60' E 023°33'5 5.3
2015-Apr-18 03:33N 37°56' E 023°38'1 1.3
2015-Apr-18 02:33N 37°57' E 023°37'0 0.0
2015-Apr-18 01:33N 37°57' E 023°37'0 0.0
2015-Apr-18 00:31N 37°57' E 023°37'0 0.0
2015-Apr-17 23:31N 37°57' E 023°37'0 0.0
2015-Apr-17 22:27N 37°57' E 023°37'0 0.0
2015-Apr-17 21:31N 37°57' E 023°37'0 0.0
2015-Apr-17 20:31N 37°57' E 023°37'0 0.0
2015-Apr-17 19:33N 37°57' E 023°37'0 0.0
2015-Apr-17 18:33N 37°57' E 023°37'0 0.0
2015-Apr-17 17:31N 37°57' E 023°37'0 0.0
2015-Apr-17 16:28N 37°57' E 023°37'0 0.0
2015-Apr-17 15:29N 37°57' E 023°37'0 0.0
2015-Apr-17 14:27N 37°57' E 023°37'0 0.0
2015-Apr-17 13:32N 37°57' E 023°37'3 3.5
2015-Apr-17 12:33N 37°59' E 023°33'2 2.0
2015-Apr-17 11:28N 38°01' E 023°33'1 1.4
2015-Apr-17 10:24N 38°01' E 023°31'0 0.1
2015-Apr-17 09:32N 38°01' E 023°31'0 0.1
2015-Apr-17 08:33N 38°01' E 023°31'3 3.3
2015-Apr-17 07:31N 38°02' E 023°35'3 2.4
2015-Apr-17 06:05N 38°02' E 023°31'6 4.0
2015-Apr-17 04:32N 37°57' E 023°36'0 0.0
2015-Apr-16 17:15N 37°57' E 023°36'6 3.1
2015-Apr-16 15:12N 38°01' E 023°30'1 0.3
2015-Apr-16 10:27N 38°00' E 023°31'5 3.9
2015-Apr-16 09:04N 37°57' E 023°36'0 0.7
2015-Apr-16 08:33N 37°57' E 023°36'0 0.2
2015-Apr-16 07:30N 37°57' E 023°37'0 0.0
2015-Apr-16 06:33N 37°57' E 023°37'1 0.5
2015-Apr-16 05:14N 37°57' E 023°36'0 0.5
2015-Apr-16 04:30N 37°57' E 023°36'0 0.0
2015-Apr-15 10:16N 37°57' E 023°36'1 0.7
2015-Apr-15 09:17N 37°57' E 023°36'0 0.2
2015-Apr-15 08:22N 37°57' E 023°35'1 1.4
2015-Apr-15 07:26N 37°57' E 023°34'0 0.5
2015-Apr-15 06:33N 37°57' E 023°34'1 0.4
2015-Apr-15 04:29N 37°57' E 023°35'1 0.1
2015-Apr-14 16:31N 37°58' E 023°36'0 0.2
2015-Apr-14 15:30N 37°58' E 023°37'0 0.2
2015-Apr-14 14:32N 37°57' E 023°37'0 0.0
2015-Apr-14 13:33N 37°57' E 023°37'3 3.3
2015-Apr-14 12:33N 37°59' E 023°33'4 3.8
2015-Apr-14 11:33N 38°02' E 023°31'0 0.1
2015-Apr-14 10:30N 38°02' E 023°31'1 1.1
2015-Apr-14 09:23N 38°02' E 023°32'0 0.0
2015-Apr-14 08:11N 38°02' E 023°32'3 5.0
2015-Apr-14 07:33N 37°59' E 023°33'3 3.0
2015-Apr-14 06:27N 37°57' E 023°37'0 0.3
2015-Apr-14 05:33N 37°58' E 023°36'0 0.2
2015-Apr-14 04:25N 37°57' E 023°37'0 0.0
2015-Apr-14 03:26N 37°57' E 023°37'0 0.0
2015-Apr-13 04:33N 37°57' E 023°36'4 0.8
2015-Apr-12 23:30N 38°01' E 023°36'0 0.0
2015-Apr-12 21:05N 38°01' E 023°36'0 0.0
2015-Apr-12 13:26N 38°01' E 023°36'0 0.0
2015-Apr-12 12:28N 38°01' E 023°36'0 0.0
2015-Apr-12 11:17N 38°01' E 023°36'0 0.0
2015-Apr-12 10:16N 38°01' E 023°36'0 0.0
2015-Apr-12 08:08N 38°01' E 023°36'0 0.0
2015-Apr-12 05:21N 38°01' E 023°36'0 0.0
2015-Apr-12 04:27N 38°01' E 023°36'4 5.0
2015-Apr-12 03:33N 37°57' E 023°35'  

Dump ship's entire track history